Cedar Point, North Carolina
Current Conditions -  °F | °C
As of 8:57 AM on Thursday 23 Oct 2014 (Local Time) from KNJM Reporting Station
Clear Clear  
Wind Chill: 53°   Ceiling: Unl
Heat Index: 53°   Visibility: 10mi
Dew Point: 43°   Wind: 10mph
Humidity: 69%   Direction: 320°NW
Pressure: 30"   Gusts: NA
Location:  34.7017°N, 77.1399°W
Report Text: KNJM 231257Z 32009KT 10SM CLR 12/06 A3000 RMK AO2 SLP161 T01170061 $
Loading
Personal Weather Stations






























Interactive Weather Map
Tropical Storm Tracking
New forecast layout! Learn more

10-Day Weather Forecast

Advertisements
Track Severe Weather on mobile